Time;durP1;ratioP1;P1;durP2;ratioP2;P2;SDS_P1;SDS_P2;PMS_P1;PMS_P2;Temp;Humidity;BMP_temperature;BMP_pressure;BME280_temperature;BME280_humidity;BME280_pressure;Samples;Min_cycle;Max_cycle;Signal;HPM_P1;HPM_P2
2023/07/03 00:00:33;;;;;;;10.45;3.38;;;16.30;99.90;;;;;;5036412;28;20110;-80
2023/07/03 00:02:58;;;;;;;12.00;3.13;;;16.30;99.90;;;;;;5067609;28;20122;-80
2023/07/03 00:05:24;;;;;;;7.97;3.38;;;16.30;99.90;;;;;;5034468;28;20048;-80
2023/07/03 00:07:51;;;;;;;10.52;3.78;;;16.30;99.90;;;;;;5053387;28;20029;-81
2023/07/03 00:10:17;;;;;;;8.75;3.17;;;16.30;99.90;;;;;;5051899;28;20036;-80
2023/07/03 00:12:44;;;;;;;9.02;3.53;;;16.30;99.90;;;;;;5053100;28;20463;-80
2023/07/03 00:15:10;;;;;;;9.05;3.25;;;16.30;99.90;;;;;;5053826;28;20041;-80
2023/07/03 00:17:38;;;;;;;11.82;3.53;;;16.30;99.90;;;;;;5052265;28;20404;-81
2023/07/03 00:20:06;;;;;;;9.90;3.40;;;16.20;99.90;;;;;;5063124;28;20496;-81
2023/07/03 00:22:31;;;;;;;12.38;4.10;;;16.30;99.90;;;;;;5063255;28;20547;-80
2023/07/03 00:24:57;;;;;;;11.15;3.92;;;16.30;99.90;;;;;;5053043;28;20257;-80
2023/07/03 00:27:22;;;;;;;12.15;3.25;;;16.20;99.90;;;;;;5052361;28;20049;-80
2023/07/03 00:29:48;;;;;;;9.93;3.67;;;16.20;99.90;;;;;;5053559;28;20044;-81
2023/07/03 00:32:13;;;;;;;13.98;3.70;;;16.20;99.90;;;;;;5067744;28;20416;-81
2023/07/03 00:34:39;;;;;;;9.90;3.55;;;16.20;99.90;;;;;;5051596;28;20525;-81
2023/07/03 00:37:05;;;;;;;9.85;3.08;;;16.20;99.90;;;;;;5069617;28;20033;-80
2023/07/03 00:39:30;;;;;;;7.47;3.30;;;16.20;99.90;;;;;;5053631;28;20095;-82
2023/07/03 00:41:56;;;;;;;7.55;2.60;;;16.20;99.90;;;;;;5044195;28;20041;-81
2023/07/03 00:44:23;;;;;;;10.80;3.42;;;16.20;99.90;;;;;;5051811;28;20041;-81
2023/07/03 00:46:50;;;;;;;9.88;3.30;;;16.20;99.90;;;;;;5069281;28;20033;-80
2023/07/03 00:49:18;;;;;;;10.25;3.42;;;16.20;99.90;;;;;;5050291;28;20029;-81
2023/07/03 00:51:54;;;;;;;14.82;3.40;;;16.20;99.90;;;;;;5051537;28;20412;-81
2023/07/03 00:54:20;;;;;;;10.20;3.63;;;16.20;99.90;;;;;;5052363;28;20045;-81
2023/07/03 00:56:46;;;;;;;10.30;3.20;;;16.10;99.90;;;;;;5052043;28;20059;-81
2023/07/03 00:59:12;;;;;;;11.60;3.40;;;16.10;99.90;;;;;;5052682;28;20040;-81
2023/07/03 01:01:53;;;;;;;12.23;3.88;;;16.10;99.90;;;;;;5047015;28;20049;-81
2023/07/03 01:04:35;;;;;;;12.57;3.50;;;16.10;99.90;;;;;;5052858;28;20047;-81
2023/07/03 01:07:07;;;;;;;9.75;3.33;;;16.10;99.90;;;;;;5051519;28;20133;-82
2023/07/03 01:09:46;;;;;;;10.93;3.15;;;16.10;99.90;;;;;;5052187;28;20120;-81
2023/07/03 01:12:12;;;;;;;8.05;2.70;;;16.10;99.90;;;;;;5034355;28;20079;-81
2023/07/03 01:14:40;;;;;;;11.27;3.42;;;16.10;99.90;;;;;;5052096;28;20386;-81
2023/07/03 01:17:09;;;;;;;19.60;3.90;;;16.00;99.90;;;;;;5049260;28;20033;-81
2023/07/03 01:19:37;;;;;;;8.05;3.30;;;16.10;99.90;;;;;;5048981;28;20104;-80
2023/07/03 01:22:10;;;;;;;10.77;3.17;;;16.10;99.90;;;;;;5049839;28;20176;-80
2023/07/03 01:24:42;;;;;;;10.13;3.10;;;16.10;99.90;;;;;;5049705;28;20198;-80
2023/07/03 01:27:11;;;;;;;10.27;3.00;;;16.10;99.90;;;;;;5049503;28;20037;-80
2023/07/03 01:29:39;;;;;;;9.90;3.58;;;16.00;99.90;;;;;;5050347;28;20123;-80
2023/07/03 01:32:07;;;;;;;7.90;2.85;;;16.00;99.90;;;;;;5050750;28;20126;-80
2023/07/03 01:34:33;;;;;;;9.18;2.95;;;15.90;99.90;;;;;;5048105;28;20624;-80
2023/07/03 01:37:01;;;;;;;10.30;2.95;;;15.90;99.90;;;;;;5047198;28;20049;-80
2023/07/03 01:39:27;;;;;;;10.63;3.45;;;15.90;99.90;;;;;;5050716;28;20040;-81
2023/07/03 01:41:53;;;;;;;10.18;3.17;;;15.90;99.90;;;;;;5050367;28;20029;-81
2023/07/03 01:44:19;;;;;;;13.68;3.83;;;16.00;99.90;;;;;;5033130;28;20452;-81
2023/07/03 01:46:44;;;;;;;12.63;3.67;;;15.90;99.90;;;;;;5033646;28;20037;-80
2023/07/03 01:49:12;;;;;;;9.48;3.17;;;15.80;99.90;;;;;;5050113;28;20461;-81
2023/07/03 01:51:56;;;;;;;9.00;3.40;;;15.80;99.90;;;;;;5050057;28;20507;-80
2023/07/03 01:54:29;;;;;;;12.45;3.15;;;15.80;99.90;;;;;;5025663;28;20033;-80
2023/07/03 01:56:57;;;;;;;12.23;3.17;;;15.70;99.90;;;;;;5050231;28;20041;-80
2023/07/03 01:59:28;;;;;;;8.38;2.70;;;15.70;99.90;;;;;;5050163;28;20033;-81
2023/07/03 02:02:04;;;;;;;11.90;2.72;;;15.60;99.90;;;;;;5050526;28;20048;-80
2023/07/03 02:05:04;;;;;;;8.25;2.40;;;15.60;99.90;;;;;;5050610;28;20512;-80
2023/07/03 02:07:31;;;;;;;11.50;2.28;;;15.60;99.90;;;;;;5036178;28;20045;-80
2023/07/03 02:09:58;;;;;;;13.75;2.50;;;15.60;99.90;;;;;;5066183;28;20384;-80
2023/07/03 02:12:24;;;;;;;7.63;2.97;;;15.60;99.90;;;;;;5065101;28;20041;-80
2023/07/03 02:14:49;;;;;;;10.57;2.78;;;15.50;99.90;;;;;;5049791;28;20079;-80
2023/07/03 02:17:15;;;;;;;8.93;2.40;;;15.50;99.90;;;;;;5051880;28;20041;-80
2023/07/03 02:19:40;;;;;;;10.23;2.85;;;15.50;99.90;;;;;;5049394;28;20377;-80
2023/07/03 02:22:06;;;;;;;9.80;2.47;;;15.40;99.90;;;;;;5049586;28;20034;-80
2023/07/03 02:24:32;;;;;;;10.65;2.88;;;15.40;99.90;;;;;;5050202;28;20060;-80
2023/07/03 02:26:58;;;;;;;11.30;2.95;;;15.40;99.90;;;;;;5049289;28;20040;-80
2023/07/03 02:29:23;;;;;;;11.68;3.28;;;15.30;99.90;;;;;;5053027;28;20033;-80
2023/07/03 02:31:49;;;;;;;9.25;2.38;;;15.30;99.90;;;;;;5051879;28;20044;-81
2023/07/03 02:34:15;;;;;;;8.55;2.90;;;15.20;99.90;;;;;;5053653;28;21566;-80
2023/07/03 02:36:40;;;;;;;7.95;2.53;;;15.20;99.90;;;;;;5054981;28;20033;-81
2023/07/03 02:39:07;;;;;;;7.20;2.22;;;15.20;99.90;;;;;;5053295;28;20037;-81
2023/07/03 02:41:36;;;;;;;8.73;2.50;;;15.10;99.90;;;;;;5053836;28;20048;-80
2023/07/03 02:44:01;;;;;;;16.52;2.70;;;15.10;99.90;;;;;;5052172;28;20041;-80
2023/07/03 02:46:27;;;;;;;9.05;2.10;;;15.10;99.90;;;;;;5053501;28;20270;-80
2023/07/03 02:48:52;;;;;;;10.07;2.78;;;15.10;99.90;;;;;;5052734;28;20112;-81
2023/07/03 02:51:18;;;;;;;11.90;2.13;;;15.00;99.90;;;;;;5053444;28;20033;-80
2023/07/03 02:53:44;;;;;;;8.70;2.08;;;15.00;99.90;;;;;;5053281;28;20037;-80
2023/07/03 02:56:09;;;;;;;9.57;2.33;;;14.90;99.90;;;;;;5068387;28;20041;-80
2023/07/03 02:58:35;;;;;;;7.28;2.00;;;14.90;99.90;;;;;;5070646;28;20037;-80
2023/07/03 03:01:01;;;;;;;9.52;2.40;;;14.80;99.90;;;;;;5069960;28;20033;-81
2023/07/03 03:03:27;;;;;;;7.25;2.15;;;14.70;99.90;;;;;;5051585;28;20072;-80
2023/07/03 03:05:55;;;;;;;7.68;1.98;;;14.70;99.90;;;;;;5033417;28;20382;-81
2023/07/03 03:08:21;;;;;;;9.25;2.20;;;14.70;99.90;;;;;;5051383;28;20041;-80
2023/07/03 03:10:47;;;;;;;9.88;2.58;;;14.60;99.90;;;;;;5036695;28;20446;-81
2023/07/03 03:13:13;;;;;;;6.93;2.25;;;14.60;99.90;;;;;;5051995;28;20155;-80
2023/07/03 03:15:38;;;;;;;10.00;1.90;;;14.50;99.90;;;;;;5051409;28;20029;-80
2023/07/03 03:18:04;;;;;;;7.53;1.85;;;14.50;99.90;;;;;;5051924;28;20116;-81
2023/07/03 03:20:30;;;;;;;6.53;1.65;;;14.50;99.90;;;;;;5070392;28;20136;-80
2023/07/03 03:22:56;;;;;;;5.93;1.90;;;14.40;99.90;;;;;;5051800;28;20128;-81
2023/07/03 03:25:21;;;;;;;8.77;1.70;;;14.40;99.90;;;;;;5052235;28;20041;-81
2023/07/03 03:27:47;;;;;;;6.90;1.70;;;14.40;99.90;;;;;;5052326;28;20098;-81
2023/07/03 03:30:12;;;;;;;8.07;2.28;;;14.40;99.90;;;;;;5053259;28;20037;-80
2023/07/03 03:32:39;;;;;;;7.75;1.80;;;14.40;99.90;;;;;;5053821;28;20048;-80
2023/07/03 03:35:05;;;;;;;6.95;1.80;;;14.30;99.90;;;;;;5051860;28;20036;-81
2023/07/03 03:37:31;;;;;;;6.97;1.80;;;14.30;99.90;;;;;;5051520;28;20064;-81
2023/07/03 03:39:56;;;;;;;8.15;1.70;;;14.30;99.90;;;;;;5054411;28;20044;-80
2023/07/03 03:42:22;;;;;;;8.18;1.80;;;14.30;99.90;;;;;;5051716;28;20037;-81
2023/07/03 03:44:47;;;;;;;9.65;2.00;;;14.30;99.90;;;;;;5053777;28;20045;-82
2023/07/03 03:47:13;;;;;;;7.63;1.80;;;14.30;99.90;;;;;;5070542;28;20434;-80
2023/07/03 03:49:39;;;;;;;6.97;1.80;;;14.30;99.90;;;;;;5054132;28;20041;-80
2023/07/03 03:52:05;;;;;;;6.00;1.88;;;14.20;99.90;;;;;;5053035;28;20045;-81
2023/07/03 03:54:31;;;;;;;4.38;1.60;;;14.20;99.90;;;;;;5054416;28;20455;-81
2023/07/03 03:56:56;;;;;;;7.80;1.88;;;14.20;99.90;;;;;;5051797;28;20037;-80
2023/07/03 03:59:22;;;;;;;6.90;1.30;;;14.30;99.90;;;;;;5052172;28;20521;-81
2023/07/03 04:01:48;;;;;;;9.20;2.60;;;14.30;99.90;;;;;;5050506;28;20047;-81
2023/07/03 04:04:15;;;;;;;7.63;1.70;;;14.30;99.90;;;;;;5044152;28;20041;-80
2023/07/03 04:06:41;;;;;;;6.05;1.90;;;14.30;99.90;;;;;;5050267;28;20091;-80
2023/07/03 04:09:07;;;;;;;7.20;1.60;;;14.30;99.90;;;;;;5050658;28;20037;-80
2023/07/03 04:11:33;;;;;;;7.20;1.90;;;14.30;99.90;;;;;;5051244;28;20072;-80
2023/07/03 04:13:59;;;;;;;5.80;1.83;;;14.30;99.90;;;;;;5052246;28;20409;-80
2023/07/03 04:16:26;;;;;;;9.93;2.20;;;14.30;99.90;;;;;;5034707;28;20064;-80
2023/07/03 04:18:52;;;;;;;5.15;1.40;;;14.40;99.90;;;;;;5050941;28;20044;-81
2023/07/03 04:21:18;;;;;;;7.57;1.80;;;14.40;99.90;;;;;;5051352;28;20041;-81
2023/07/03 04:23:43;;;;;;;8.50;1.90;;;14.50;99.90;;;;;;5050379;28;20086;-80
2023/07/03 04:26:09;;;;;;;7.97;1.70;;;14.50;99.90;;;;;;5051505;28;20052;-81
2023/07/03 04:28:34;;;;;;;6.88;1.95;;;14.50;99.90;;;;;;5051204;28;20041;-80
2023/07/03 04:31:02;;;;;;;7.55;1.80;;;14.60;99.90;;;;;;5049852;28;20040;-81
2023/07/03 04:33:27;;;;;;;9.15;2.20;;;14.60;99.90;;;;;;5050116;28;20110;-81
2023/07/03 04:35:53;;;;;;;8.02;2.20;;;14.60;99.90;;;;;;5048932;28;20037;-80
2023/07/03 04:38:23;;;;;;;9.68;2.08;;;14.70;99.90;;;;;;5050626;28;20393;-81
2023/07/03 04:40:49;;;;;;;6.05;1.80;;;14.70;99.90;;;;;;5050374;28;20060;-80
2023/07/03 04:43:15;;;;;;;7.72;1.80;;;14.80;99.90;;;;;;5056961;28;20040;-81
2023/07/03 04:45:47;;;;;;;8.85;1.83;;;14.90;99.90;;;;;;5051553;28;20048;-80
2023/07/03 04:48:14;;;;;;;6.68;2.15;;;14.90;99.90;;;;;;5065657;28;20025;-81
2023/07/03 04:50:40;;;;;;;8.48;2.05;;;15.00;99.90;;;;;;5033291;28;20396;-81
2023/07/03 04:53:05;;;;;;;11.65;1.92;;;15.00;99.90;;;;;;5033319;28;20033;-80
2023/07/03 04:55:32;;;;;;;10.05;2.30;;;15.00;99.90;;;;;;5050856;28;20028;-80
2023/07/03 04:58:02;;;;;;;6.68;2.03;;;15.10;99.90;;;;;;5051451;28;20090;-80
2023/07/03 05:00:28;;;;;;;8.40;2.38;;;15.10;99.90;;;;;;5051826;28;20059;-80
2023/07/03 05:02:57;;;;;;;8.93;2.13;;;15.20;99.90;;;;;;5048988;28;20689;-80
2023/07/03 05:05:24;;;;;;;7.25;1.70;;;15.30;99.90;;;;;;5050035;28;20064;-80
2023/07/03 05:07:49;;;;;;;8.55;2.13;;;15.30;99.90;;;;;;5033572;28;20056;-81
2023/07/03 05:10:17;;;;;;;12.32;2.10;;;15.40;99.90;;;;;;5049947;28;20036;-81
2023/07/03 05:12:43;;;;;;;6.82;1.92;;;15.40;99.90;;;;;;5050810;28;20041;-81
2023/07/03 05:15:11;;;;;;;6.45;2.05;;;15.50;99.90;;;;;;5067286;28;20051;-81
2023/07/03 05:17:38;;;;;;;8.93;2.20;;;15.60;99.90;;;;;;5050475;28;20039;-80
2023/07/03 05:20:16;;;;;;;9.82;2.85;;;15.60;99.90;;;;;;5048011;28;20526;-80
2023/07/03 05:22:43;;;;;;;6.30;1.70;;;15.70;99.90;;;;;;5050439;28;20037;-80
2023/07/03 05:25:11;;;;;;;8.32;2.33;;;15.80;99.90;;;;;;5048717;28;20099;-81
2023/07/03 05:27:37;;;;;;;8.70;2.17;;;15.90;99.90;;;;;;5046407;28;20037;-80
2023/07/03 05:30:04;;;;;;;11.32;2.28;;;15.90;99.90;;;;;;5049578;28;20052;-81
2023/07/03 05:32:30;;;;;;;10.40;2.30;;;15.90;99.90;;;;;;5033269;28;20069;-81
2023/07/03 05:34:55;;;;;;;7.45;2.05;;;16.00;99.90;;;;;;5049010;28;20075;-80
2023/07/03 05:37:21;;;;;;;6.10;1.77;;;16.10;99.90;;;;;;5034408;28;20447;-81
2023/07/03 05:39:49;;;;;;;13.57;2.80;;;16.10;99.90;;;;;;5034322;28;20113;-81
2023/07/03 05:42:16;;;;;;;10.23;2.00;;;16.00;99.90;;;;;;5050759;28;20115;-81
2023/07/03 05:44:41;;;;;;;10.45;1.80;;;15.90;99.90;;;;;;5048773;28;20033;-80
2023/07/03 05:47:07;;;;;;;12.77;2.17;;;15.80;99.90;;;;;;5065331;28;20071;-79
2023/07/03 05:49:32;;;;;;;10.93;2.88;;;15.70;99.90;;;;;;5049561;28;20045;-80
2023/07/03 05:51:58;;;;;;;11.65;2.10;;;15.50;99.90;;;;;;5048588;28;20048;-80
2023/07/03 05:54:24;;;;;;;8.15;2.00;;;15.40;99.90;;;;;;5048822;28;20404;-79
2023/07/03 05:57:00;;;;;;;9.80;2.10;;;15.30;99.90;;;;;;5065378;28;20037;-80
2023/07/03 05:59:26;;;;;;;6.70;2.00;;;15.30;99.90;;;;;;5047297;28;20025;-80
2023/07/03 06:01:54;;;;;;;11.55;1.83;;;15.20;99.90;;;;;;5063339;28;20037;-80
2023/07/03 06:04:22;;;;;;;9.20;2.42;;;15.30;99.90;;;;;;5052937;28;20073;-80
2023/07/03 06:06:49;;;;;;;6.97;2.03;;;15.50;99.90;;;;;;5052737;28;20090;-80
2023/07/03 06:09:14;;;;;;;11.80;2.58;;;15.80;99.90;;;;;;5051109;28;20051;-80
2023/07/03 06:11:40;;;;;;;8.02;2.92;;;16.00;99.90;;;;;;5053099;28;20571;-81
2023/07/03 06:14:12;;;;;;;6.88;2.03;;;16.30;99.90;;;;;;5036549;28;20037;-80
2023/07/03 06:16:39;;;;;;;8.32;2.38;;;16.70;99.90;;;;;;5052608;28;20080;-80
2023/07/03 06:19:04;;;;;;;10.23;2.55;;;17.00;99.90;;;;;;5070113;28;20041;-80
2023/07/03 06:21:30;;;;;;;16.15;2.10;;;16.90;99.90;;;;;;5070805;28;20713;-80
2023/07/03 06:23:55;;;;;;;7.05;2.28;;;16.70;99.90;;;;;;5070471;28;20077;-80
2023/07/03 06:26:21;;;;;;;9.35;1.80;;;16.70;99.90;;;;;;5069392;28;20041;-80
2023/07/03 06:28:47;;;;;;;10.80;2.22;;;16.60;99.90;;;;;;5069162;28;20155;-80
2023/07/03 06:31:12;;;;;;;9.35;2.20;;;16.60;99.90;;;;;;5051454;28;20075;-80
2023/07/03 06:33:38;;;;;;;5.22;1.60;;;16.80;99.90;;;;;;5051063;28;20029;-80
2023/07/03 06:36:03;;;;;;;8.90;1.60;;;16.80;99.90;;;;;;5050572;28;20116;-81
2023/07/03 06:38:29;;;;;;;9.90;2.20;;;16.80;99.90;;;;;;5053479;28;20047;-80
2023/07/03 06:40:59;;;;;;;9.57;1.92;;;16.70;99.90;;;;;;5034773;28;20037;-80
2023/07/03 06:43:25;;;;;;;7.20;1.50;;;16.70;99.90;;;;;;5040786;28;20041;-80
2023/07/03 06:45:51;;;;;;;6.00;1.70;;;16.60;99.90;;;;;;5059941;28;20037;-79
2023/07/03 06:48:16;;;;;;;6.13;1.40;;;16.60;99.90;;;;;;5050149;28;20041;-80
2023/07/03 06:50:42;;;;;;;6.63;1.80;;;16.60;99.90;;;;;;5049924;28;20090;-80
2023/07/03 06:53:07;;;;;;;5.72;1.58;;;16.50;99.90;;;;;;5028362;28;20055;-81
2023/07/03 06:55:33;;;;;;;10.02;1.80;;;16.40;99.90;;;;;;5062769;28;20036;-80
2023/07/03 06:58:00;;;;;;;10.52;1.90;;;16.30;99.90;;;;;;5052796;28;20041;-81
2023/07/03 07:00:26;;;;;;;6.55;1.50;;;16.10;99.90;;;;;;5051389;28;20037;-80
2023/07/03 07:02:52;;;;;;;9.43;1.73;;;15.90;99.90;;;;;;5044275;28;20041;-81
2023/07/03 07:05:19;;;;;;;7.45;1.65;;;15.60;99.90;;;;;;5045845;28;20496;-80
2023/07/03 07:07:45;;;;;;;4.82;1.55;;;15.50;99.90;;;;;;5058706;28;20560;-80
2023/07/03 07:10:11;;;;;;;8.82;2.13;;;15.50;99.90;;;;;;5057676;28;20032;-80
2023/07/03 07:12:36;;;;;;;7.05;1.85;;;15.50;99.90;;;;;;5044839;28;20065;-78
2023/07/03 07:15:02;;;;;;;10.27;2.13;;;15.50;99.90;;;;;;5048594;28;20424;-80
2023/07/03 07:17:28;;;;;;;8.35;1.73;;;15.60;99.90;;;;;;5052051;28;20037;-79
2023/07/03 07:19:53;;;;;;;8.93;1.60;;;15.70;99.90;;;;;;5034519;28;20044;-80
2023/07/03 07:22:19;;;;;;;8.85;1.90;;;15.80;99.90;;;;;;5048452;28;20044;-79
2023/07/03 07:24:44;;;;;;;6.55;1.63;;;15.80;99.90;;;;;;5052456;28;20399;-80
2023/07/03 07:27:11;;;;;;;9.18;2.17;;;15.80;99.90;;;;;;5034959;28;20041;-80
2023/07/03 07:29:38;;;;;;;9.38;1.70;;;15.70;99.90;;;;;;5052117;28;20376;-80
2023/07/03 07:32:04;;;;;;;7.03;1.80;;;15.70;99.90;;;;;;5031773;28;20047;-82
2023/07/03 07:34:29;;;;;;;9.10;1.83;;;15.60;99.90;;;;;;5031348;28;20116;-80
2023/07/03 07:36:55;;;;;;;7.28;1.80;;;15.60;99.90;;;;;;5059639;28;20116;-81
2023/07/03 07:39:21;;;;;;;7.93;1.60;;;15.60;99.90;;;;;;5032976;28;20033;-80
2023/07/03 07:41:47;;;;;;;11.35;1.90;;;15.60;99.90;;;;;;5047209;28;20032;-80
2023/07/03 07:44:13;;;;;;;7.53;1.70;;;15.70;99.90;;;;;;5049732;28;20033;-80
2023/07/03 07:46:38;;;;;;;9.70;1.90;;;15.80;99.90;;;;;;5050440;28;20029;-82
2023/07/03 07:49:04;;;;;;;9.82;2.00;;;15.90;99.90;;;;;;5044875;28;20040;-80
2023/07/03 07:51:30;;;;;;;12.07;1.60;;;16.00;99.90;;;;;;5052330;28;20518;-82
2023/07/03 07:53:57;;;;;;;7.45;1.55;;;16.10;99.90;;;;;;5051891;28;20504;-81
2023/07/03 07:56:23;;;;;;;6.82;1.52;;;16.30;99.90;;;;;;5051142;28;20044;-80
2023/07/03 07:58:49;;;;;;;5.45;1.20;;;16.40;99.90;;;;;;5048977;28;20039;-80
2023/07/03 08:01:15;;;;;;;5.85;1.50;;;16.50;99.90;;;;;;5036920;28;20115;-82
2023/07/03 08:03:42;;;;;;;5.57;1.20;;;16.60;99.90;;;;;;5046069;28;20515;-81
2023/07/03 08:06:08;;;;;;;5.63;1.52;;;16.80;99.90;;;;;;5059969;28;20057;-82
2023/07/03 08:08:35;;;;;;;6.07;1.50;;;17.20;99.90;;;;;;5044273;28;20033;-81
2023/07/03 08:11:02;;;;;;;5.10;1.42;;;17.70;99.90;;;;;;5065978;28;20045;-81
2023/07/03 08:13:32;;;;;;;5.88;1.63;;;18.30;99.90;;;;;;5041889;28;20041;-79
2023/07/03 08:15:58;;;;;;;6.65;1.55;;;18.50;99.90;;;;;;5066328;28;20128;-80
2023/07/03 08:18:24;;;;;;;6.43;1.63;;;18.80;99.90;;;;;;5034847;28;20080;-80
2023/07/03 08:20:50;;;;;;;9.80;1.60;;;18.80;99.90;;;;;;5051156;28;20083;-82
2023/07/03 08:23:17;;;;;;;6.95;1.65;;;18.60;99.90;;;;;;5030947;28;20033;-80
2023/07/03 08:25:42;;;;;;;6.78;1.55;;;18.40;99.90;;;;;;5048470;28;20044;-80
2023/07/03 08:28:09;;;;;;;6.72;1.20;;;18.20;99.90;;;;;;5050714;28;20037;-78
2023/07/03 08:30:35;;;;;;;8.93;1.52;;;18.20;99.90;;;;;;5046873;28;20374;-80
2023/07/03 08:33:01;;;;;;;6.20;1.40;;;17.90;99.90;;;;;;5044059;28;20071;-81
2023/07/03 08:35:26;;;;;;;4.82;1.30;;;17.80;99.90;;;;;;5058253;28;20516;-81
2023/07/03 08:37:52;;;;;;;5.28;1.27;;;17.90;99.90;;;;;;5043245;28;20436;-81
2023/07/03 08:40:19;;;;;;;6.03;1.40;;;17.80;99.90;;;;;;5047398;28;20048;-80
2023/07/03 08:42:51;;;;;;;8.82;2.17;;;17.70;99.90;;;;;;5046582;28;20068;-80
2023/07/03 08:45:18;;;;;;;5.95;1.42;;;17.60;99.90;;;;;;5048348;28;20044;-80
2023/07/03 08:47:48;;;;;;;6.15;1.40;;;17.50;99.90;;;;;;5048904;28;20455;-79
2023/07/03 08:50:17;;;;;;;3.78;1.30;;;17.50;99.90;;;;;;5046601;28;20036;-79
2023/07/03 08:52:57;;;;;;;6.10;1.33;;;17.40;99.90;;;;;;5046901;28;20411;-82
2023/07/03 08:55:29;;;;;;;6.68;1.27;;;17.40;99.90;;;;;;5046903;28;20071;-79
2023/07/03 08:57:54;;;;;;;7.07;2.28;;;17.60;99.90;;;;;;5044539;28;20056;-80
2023/07/03 09:00:21;;;;;;;6.57;1.92;;;17.60;99.90;;;;;;5046297;28;20033;-80
2023/07/03 09:03:04;;;;;;;8.15;1.27;;;17.60;99.90;;;;;;5050155;28;20037;-80
2023/07/03 09:05:38;;;;;;;9.30;1.80;;;17.50;99.90;;;;;;5047162;28;20044;-80
2023/07/03 09:08:07;;;;;;;6.68;1.20;;;17.40;99.90;;;;;;5033812;28;20416;-81
2023/07/03 09:10:51;;;;;;;5.38;1.38;;;17.30;99.90;;;;;;5050592;28;20365;-80
2023/07/03 09:13:33;;;;;;;4.20;1.30;;;17.10;99.90;;;;;;5050071;28;20404;-79
2023/07/03 09:16:04;;;;;;;7.55;1.50;;;17.00;99.90;;;;;;5050067;28;20094;-79
2023/07/03 09:18:38;;;;;;;8.60;1.40;;;17.20;99.90;;;;;;5050311;28;20119;-80
2023/07/03 09:21:04;;;;;;;6.65;1.42;;;17.40;99.90;;;;;;5050204;28;20400;-79
2023/07/03 09:23:37;;;;;;;4.75;1.60;;;17.70;99.90;;;;;;5049424;28;20037;-80
2023/07/03 09:26:09;;;;;;;8.75;1.85;;;17.80;99.90;;;;;;5049882;28;20055;-81
2023/07/03 09:28:39;;;;;;;7.32;1.63;;;17.90;99.90;;;;;;5044922;28;20041;-78
2023/07/03 09:31:04;;;;;;;8.35;1.92;;;17.90;99.90;;;;;;5045185;28;20043;-80
2023/07/03 09:33:30;;;;;;;6.78;1.45;;;17.90;99.90;;;;;;5040504;28;20496;-80
2023/07/03 09:35:55;;;;;;;5.05;1.30;;;17.90;99.90;;;;;;5047508;28;20052;-79
2023/07/03 09:38:23;;;;;;;6.55;1.65;;;17.90;99.90;;;;;;5051980;28;20078;-80
2023/07/03 09:40:51;;;;;;;4.72;1.20;;;17.90;99.90;;;;;;5047101;28;20068;-80
2023/07/03 09:43:22;;;;;;;5.25;1.10;;;17.90;99.90;;;;;;5053100;28;20048;-80
2023/07/03 09:45:49;;;;;;;4.85;1.10;;;18.00;99.90;;;;;;5054033;28;20085;-79
2023/07/03 09:48:26;;;;;;;4.60;0.90;;;18.10;99.90;;;;;;5048626;28;20045;-79
2023/07/03 09:50:52;;;;;;;2.58;0.82;;;18.10;99.90;;;;;;5068736;28;20072;-80
2023/07/03 09:53:26;;;;;;;1.95;0.77;;;18.10;99.90;;;;;;5052469;28;20484;-78
2023/07/03 09:55:56;;;;;;;2.65;0.70;;;18.10;99.90;;;;;;5043605;28;20087;-80
2023/07/03 09:58:26;;;;;;;4.18;0.95;;;18.00;99.90;;;;;;5052879;28;20029;-79
2023/07/03 10:00:57;;;;;;;5.38;1.00;;;17.80;99.90;;;;;;5053953;28;20483;-79
2023/07/03 10:03:26;;;;;;;2.83;1.00;;;17.60;99.90;;;;;;5053950;28;20041;-81
2023/07/03 10:05:53;;;;;;;4.65;0.82;;;17.40;99.90;;;;;;5052843;28;20578;-79
2023/07/03 10:08:21;;;;;;;4.80;1.10;;;17.20;99.90;;;;;;5053108;28;20039;-79
2023/07/03 10:10:48;;;;;;;4.07;1.00;;;17.10;99.90;;;;;;5053297;28;20048;-77
2023/07/03 10:13:26;;;;;;;4.53;1.50;;;16.90;99.90;;;;;;5052764;28;20041;-78
2023/07/03 10:15:55;;;;;;;4.63;1.10;;;16.70;99.90;;;;;;5058781;28;20054;-79
2023/07/03 10:18:31;;;;;;;3.13;1.00;;;16.60;99.90;;;;;;5045632;28;20081;-78
2023/07/03 10:20:58;;;;;;;5.30;1.25;;;16.30;99.90;;;;;;5051473;28;20052;-79
2023/07/03 10:23:32;;;;;;;4.78;1.33;;;16.20;99.90;;;;;;5052482;28;20045;-79
2023/07/03 10:26:06;;;;;;;4.43;1.40;;;16.10;99.90;;;;;;5052535;28;20589;-78
2023/07/03 10:28:38;;;;;;;5.63;1.40;;;16.20;99.90;;;;;;5035991;28;20036;-79
2023/07/03 10:31:15;;;;;;;3.88;1.17;;;16.30;99.90;;;;;;5052750;28;20427;-79
2023/07/03 10:33:46;;;;;;;3.83;1.20;;;16.60;99.90;;;;;;5048448;28;20042;-80
2023/07/03 10:36:18;;;;;;;6.95;1.23;;;17.20;99.90;;;;;;5052027;28;20029;-79
2023/07/03 10:39:11;;;;;;;5.35;1.42;;;17.60;99.90;;;;;;5052908;28;20389;-79
2023/07/03 10:41:47;;;;;;;8.57;1.80;;;17.80;99.90;;;;;;5046356;28;20048;-79
2023/07/03 10:44:18;;;;;;;6.05;1.55;;;17.60;99.90;;;;;;5052148;28;20089;-79
2023/07/03 10:47:02;;;;;;;5.40;1.67;;;17.50;99.90;;;;;;5052316;28;20048;-79
2023/07/03 10:49:36;;;;;;;6.32;1.20;;;17.30;99.90;;;;;;5031247;28;20120;-79
2023/07/03 10:52:47;;;;;;;6.40;1.50;;;17.30;99.90;;;;;;5033550;28;20071;-81
2023/07/03 10:55:22;;;;;;;5.38;1.63;;;17.40;99.90;;;;;;5029975;28;20102;-79
2023/07/03 10:58:08;;;;;;;4.40;1.55;;;17.70;99.90;;;;;;5028667;28;20047;-78
2023/07/03 11:00:49;;;;;;;5.28;1.55;;;17.90;99.90;;;;;;5065962;28;20033;-79
2023/07/03 11:03:23;;;;;;;6.05;1.45;;;17.90;99.90;;;;;;5049985;28;20045;-79
2023/07/03 11:06:05;;;;;;;9.20;1.98;;;18.00;99.90;;;;;;5052223;28;20029;-79
2023/07/03 11:08:55;;;;;;;5.70;1.45;;;18.10;99.90;;;;;;5032632;28;20029;-78
2023/07/03 11:11:33;;;;;;;5.40;1.52;;;18.20;99.90;;;;;;5043881;28;20463;-80
2023/07/03 11:14:20;;;;;;;7.13;1.40;;;18.50;99.90;;;;;;5066326;28;20041;-80
2023/07/03 11:17:13;;;;;;;5.30;1.25;;;18.70;99.90;;;;;;5043495;28;20566;-80
2023/07/03 11:20:05;;;;;;;5.73;1.37;;;18.90;99.90;;;;;;5068818;28;20036;-78
2023/07/03 11:22:47;;;;;;;5.63;1.30;;;19.00;99.90;;;;;;5051027;28;20451;-79
2023/07/03 11:25:22;;;;;;;6.05;1.40;;;18.90;99.90;;;;;;5046726;28;20037;-80
2023/07/03 11:28:03;;;;;;;4.38;1.30;;;18.80;99.90;;;;;;5048141;28;20190;-79
2023/07/03 11:30:30;;;;;;;3.17;1.25;;;18.80;99.90;;;;;;5067456;28;20491;-79
2023/07/03 11:32:57;;;;;;;5.85;1.35;;;18.80;99.90;;;;;;5049013;28;20514;-80
2023/07/03 11:35:23;;;;;;;4.40;1.20;;;19.00;99.90;;;;;;5046011;28;20605;-79
2023/07/03 11:37:58;;;;;;;5.88;1.25;;;19.00;99.90;;;;;;5035087;28;20037;-79
2023/07/03 11:40:34;;;;;;;3.65;1.35;;;18.80;99.90;;;;;;5044457;28;20115;-81
2023/07/03 11:43:15;;;;;;;4.85;1.13;;;18.60;99.90;;;;;;5041966;28;20195;-79
2023/07/03 11:45:50;;;;;;;3.03;1.20;;;18.50;99.90;;;;;;5042098;28;20037;-79
2023/07/03 11:48:38;;;;;;;10.20;1.40;;;18.30;99.90;;;;;;5066399;28;20103;-79
2023/07/03 11:51:12;;;;;;;5.45;1.00;;;18.20;99.90;;;;;;5067579;28;20040;-80
2023/07/03 11:53:46;;;;;;;5.93;1.27;;;18.20;99.90;;;;;;5034754;28;20444;-78
2023/07/03 11:56:46;;;;;;;5.20;1.10;;;18.20;99.90;;;;;;5050471;28;20215;-79
2023/07/03 11:59:23;;;;;;;5.32;1.17;;;18.10;99.90;;;;;;5048192;28;20060;-80
2023/07/03 12:01:49;;;;;;;6.80;1.40;;;18.00;99.90;;;;;;5050745;28;20028;-79
2023/07/03 12:04:48;;;;;;;6.25;0.93;;;18.00;99.90;;;;;;5047979;28;20040;-79
2023/07/03 12:07:18;;;;;;;6.10;1.15;;;18.00;99.90;;;;;;5051163;28;20045;-79
2023/07/03 12:09:45;;;;;;;4.47;1.10;;;18.10;99.90;;;;;;5049563;28;20048;-79
2023/07/03 12:12:14;;;;;;;11.85;1.58;;;18.40;99.90;;;;;;5068352;28;20049;-78
2023/07/03 12:14:44;;;;;;;3.03;1.00;;;18.90;99.90;;;;;;5052498;28;20073;-79
2023/07/03 12:17:19;;;;;;;5.00;1.38;;;19.00;99.90;;;;;;5060114;28;20045;-78
2023/07/03 12:19:46;;;;;;;5.80;1.33;;;19.00;99.90;;;;;;5050580;28;20072;-80
2023/07/03 12:22:14;;;;;;;4.28;1.00;;;18.90;99.90;;;;;;5044523;28;20427;-79
2023/07/03 12:24:39;;;;;;;3.78;0.90;;;18.90;99.90;;;;;;5040568;28;20094;-79
2023/07/03 12:27:06;;;;;;;5.55;1.17;;;18.70;99.90;;;;;;5052065;28;20037;-81
2023/07/03 12:29:43;;;;;;;3.30;1.15;;;18.50;99.90;;;;;;5053243;28;20098;-79
2023/07/03 12:32:09;;;;;;;5.43;1.10;;;18.50;99.90;;;;;;5053698;28;20068;-80
2023/07/03 12:34:41;;;;;;;4.18;1.10;;;18.40;99.90;;;;;;5045084;28;20409;-81
2023/07/03 12:37:13;;;;;;;4.38;1.10;;;18.40;99.90;;;;;;5035118;28;20055;-80
2023/07/03 12:39:42;;;;;;;4.78;1.88;;;18.50;99.90;;;;;;5071475;28;20036;-80
2023/07/03 12:42:17;;;;;;;4.78;1.10;;;18.50;99.90;;;;;;5054151;28;20033;-80
2023/07/03 12:44:43;;;;;;;7.32;1.55;;;18.50;99.90;;;;;;5068577;28;20075;-80
2023/07/03 12:47:18;;;;;;;4.32;1.10;;;18.50;99.90;;;;;;5069563;28;20044;-80
2023/07/03 12:49:48;;;;;;;6.07;1.33;;;18.50;99.90;;;;;;5072966;28;20033;-81
2023/07/03 12:52:14;;;;;;;5.40;1.38;;;18.60;99.90;;;;;;5047394;28;20125;-80
2023/07/03 12:54:39;;;;;;;5.28;1.10;;;18.60;99.90;;;;;;5056327;28;20072;-80